sensor_id;sensor_type;location;lat;lon;timestamp;temperature;humidity
36424;DHT22;22458;45.328;9.514;2023-04-23T00:00:15;18.40;81.90
36424;DHT22;22458;45.328;9.514;2023-04-23T00:02:43;18.50;81.90
36424;DHT22;22458;45.328;9.514;2023-04-23T00:05:11;18.50;81.90
36424;DHT22;22458;45.328;9.514;2023-04-23T00:07:37;18.50;81.50
36424;DHT22;22458;45.328;9.514;2023-04-23T00:10:04;18.40;81.70
36424;DHT22;22458;45.328;9.514;2023-04-23T00:12:32;18.40;81.80
36424;DHT22;22458;45.328;9.514;2023-04-23T00:14:59;18.40;81.90
36424;DHT22;22458;45.328;9.514;2023-04-23T00:17:25;18.30;82.00
36424;DHT22;22458;45.328;9.514;2023-04-23T00:19:51;18.20;82.10
36424;DHT22;22458;45.328;9.514;2023-04-23T00:22:17;18.00;82.80
36424;DHT22;22458;45.328;9.514;2023-04-23T00:24:44;17.90;83.30
36424;DHT22;22458;45.328;9.514;2023-04-23T00:27:10;17.90;83.40
36424;DHT22;22458;45.328;9.514;2023-04-23T00:29:36;17.90;83.30
36424;DHT22;22458;45.328;9.514;2023-04-23T00:32:02;17.90;83.50
36424;DHT22;22458;45.328;9.514;2023-04-23T00:34:28;17.90;84.00
36424;DHT22;22458;45.328;9.514;2023-04-23T00:36:54;17.80;83.60
36424;DHT22;22458;45.328;9.514;2023-04-23T00:39:20;17.70;84.10
36424;DHT22;22458;45.328;9.514;2023-04-23T00:41:46;17.60;84.60
36424;DHT22;22458;45.328;9.514;2023-04-23T00:44:13;17.60;84.60
36424;DHT22;22458;45.328;9.514;2023-04-23T00:46:39;17.70;84.60
36424;DHT22;22458;45.328;9.514;2023-04-23T00:49:04;17.70;84.50
36424;DHT22;22458;45.328;9.514;2023-04-23T00:51:30;17.70;84.60
36424;DHT22;22458;45.328;9.514;2023-04-23T00:53:57;17.60;84.90
36424;DHT22;22458;45.328;9.514;2023-04-23T00:56:23;17.50;85.20
36424;DHT22;22458;45.328;9.514;2023-04-23T00:58:53;17.50;85.50
36424;DHT22;22458;45.328;9.514;2023-04-23T01:01:20;17.40;85.90
36424;DHT22;22458;45.328;9.514;2023-04-23T01:03:50;17.40;86.00
36424;DHT22;22458;45.328;9.514;2023-04-23T01:06:17;17.30;86.40
36424;DHT22;22458;45.328;9.514;2023-04-23T01:08:45;17.20;86.80
36424;DHT22;22458;45.328;9.514;2023-04-23T01:11:15;17.20;87.10
36424;DHT22;22458;45.328;9.514;2023-04-23T01:13:42;17.30;87.10
36424;DHT22;22458;45.328;9.514;2023-04-23T01:16:09;17.30;86.90
36424;DHT22;22458;45.328;9.514;2023-04-23T01:18:36;17.40;86.80
36424;DHT22;22458;45.328;9.514;2023-04-23T01:21:03;17.50;86.70
36424;DHT22;22458;45.328;9.514;2023-04-23T01:23:30;17.60;86.70
36424;DHT22;22458;45.328;9.514;2023-04-23T01:25:56;17.60;86.50
36424;DHT22;22458;45.328;9.514;2023-04-23T01:28:22;17.60;86.40
36424;DHT22;22458;45.328;9.514;2023-04-23T01:30:48;17.60;86.40
36424;DHT22;22458;45.328;9.514;2023-04-23T01:33:15;17.60;86.40
36424;DHT22;22458;45.328;9.514;2023-04-23T01:35:42;17.60;86.50
36424;DHT22;22458;45.328;9.514;2023-04-23T01:38:10;17.60;86.50
36424;DHT22;22458;45.328;9.514;2023-04-23T01:40:36;17.60;86.40
36424;DHT22;22458;45.328;9.514;2023-04-23T01:43:03;17.60;86.40
36424;DHT22;22458;45.328;9.514;2023-04-23T01:45:30;17.60;86.50
36424;DHT22;22458;45.328;9.514;2023-04-23T01:47:57;17.70;86.50
36424;DHT22;22458;45.328;9.514;2023-04-23T01:50:23;17.70;86.60
36424;DHT22;22458;45.328;9.514;2023-04-23T01:52:50;17.70;86.40
36424;DHT22;22458;45.328;9.514;2023-04-23T01:55:18;17.50;86.30
36424;DHT22;22458;45.328;9.514;2023-04-23T01:57:45;17.30;87.00
36424;DHT22;22458;45.328;9.514;2023-04-23T02:00:13;17.00;87.70
36424;DHT22;22458;45.328;9.514;2023-04-23T02:02:40;17.10;87.80
36424;DHT22;22458;45.328;9.514;2023-04-23T02:05:11;17.10;87.50
36424;DHT22;22458;45.328;9.514;2023-04-23T02:07:37;17.20;87.30
36424;DHT22;22458;45.328;9.514;2023-04-23T02:10:03;17.20;87.10
36424;DHT22;22458;45.328;9.514;2023-04-23T02:12:29;17.30;87.00
36424;DHT22;22458;45.328;9.514;2023-04-23T02:14:55;17.20;87.00
36424;DHT22;22458;45.328;9.514;2023-04-23T02:17:21;17.10;87.30
36424;DHT22;22458;45.328;9.514;2023-04-23T02:19:50;17.00;87.50
36424;DHT22;22458;45.328;9.514;2023-04-23T02:22:17;17.10;87.70
36424;DHT22;22458;45.328;9.514;2023-04-23T02:24:43;17.00;87.80
36424;DHT22;22458;45.328;9.514;2023-04-23T02:27:09;17.00;88.00
36424;DHT22;22458;45.328;9.514;2023-04-23T02:29:35;16.90;88.20
36424;DHT22;22458;45.328;9.514;2023-04-23T02:32:02;16.90;88.50
36424;DHT22;22458;45.328;9.514;2023-04-23T02:34:29;16.80;88.80
36424;DHT22;22458;45.328;9.514;2023-04-23T02:36:54;16.70;89.10
36424;DHT22;22458;45.328;9.514;2023-04-23T02:39:20;16.80;89.20
36424;DHT22;22458;45.328;9.514;2023-04-23T02:41:46;16.90;89.00
36424;DHT22;22458;45.328;9.514;2023-04-23T02:44:12;16.90;88.60
36424;DHT22;22458;45.328;9.514;2023-04-23T02:46:37;17.00;88.50
36424;DHT22;22458;45.328;9.514;2023-04-23T02:49:03;17.00;88.30
36424;DHT22;22458;45.328;9.514;2023-04-23T02:51:31;17.10;88.10
36424;DHT22;22458;45.328;9.514;2023-04-23T02:53:58;17.20;88.00
36424;DHT22;22458;45.328;9.514;2023-04-23T02:56:24;17.20;87.90
36424;DHT22;22458;45.328;9.514;2023-04-23T02:58:50;17.20;87.80
36424;DHT22;22458;45.328;9.514;2023-04-23T03:01:16;17.20;87.80
36424;DHT22;22458;45.328;9.514;2023-04-23T03:03:42;17.20;88.00
36424;DHT22;22458;45.328;9.514;2023-04-23T03:06:08;17.20;87.90
36424;DHT22;22458;45.328;9.514;2023-04-23T03:08:34;17.20;87.80
36424;DHT22;22458;45.328;9.514;2023-04-23T03:11:00;17.20;87.70
36424;DHT22;22458;45.328;9.514;2023-04-23T03:13:26;17.30;87.60
36424;DHT22;22458;45.328;9.514;2023-04-23T03:15:52;17.30;87.60
36424;DHT22;22458;45.328;9.514;2023-04-23T03:18:21;17.30;87.40
36424;DHT22;22458;45.328;9.514;2023-04-23T03:20:50;17.40;87.30
36424;DHT22;22458;45.328;9.514;2023-04-23T03:23:17;17.40;87.20
36424;DHT22;22458;45.328;9.514;2023-04-23T03:25:44;17.40;87.40
36424;DHT22;22458;45.328;9.514;2023-04-23T03:28:10;17.50;87.40
36424;DHT22;22458;45.328;9.514;2023-04-23T03:30:35;17.50;87.30
36424;DHT22;22458;45.328;9.514;2023-04-23T03:33:02;17.50;87.10
36424;DHT22;22458;45.328;9.514;2023-04-23T03:35:28;17.60;87.00
36424;DHT22;22458;45.328;9.514;2023-04-23T03:37:56;17.60;87.00
36424;DHT22;22458;45.328;9.514;2023-04-23T03:40:23;17.60;86.80
36424;DHT22;22458;45.328;9.514;2023-04-23T03:42:52;17.60;86.70
36424;DHT22;22458;45.328;9.514;2023-04-23T03:45:25;17.60;86.60
36424;DHT22;22458;45.328;9.514;2023-04-23T03:47:51;17.60;86.60
36424;DHT22;22458;45.328;9.514;2023-04-23T03:50:17;17.50;86.50
36424;DHT22;22458;45.328;9.514;2023-04-23T03:52:47;17.50;86.40
36424;DHT22;22458;45.328;9.514;2023-04-23T03:55:23;17.50;86.50
36424;DHT22;22458;45.328;9.514;2023-04-23T03:57:49;17.60;86.60
36424;DHT22;22458;45.328;9.514;2023-04-23T04:00:20;17.50;86.60
36424;DHT22;22458;45.328;9.514;2023-04-23T04:02:46;17.60;86.50
36424;DHT22;22458;45.328;9.514;2023-04-23T04:05:12;17.60;86.40
36424;DHT22;22458;45.328;9.514;2023-04-23T04:07:38;17.60;86.30
36424;DHT22;22458;45.328;9.514;2023-04-23T04:10:05;17.60;86.30
36424;DHT22;22458;45.328;9.514;2023-04-23T04:12:31;17.60;86.20
36424;DHT22;22458;45.328;9.514;2023-04-23T04:14:56;17.50;86.90
36424;DHT22;22458;45.328;9.514;2023-04-23T04:17:22;17.50;86.40
36424;DHT22;22458;45.328;9.514;2023-04-23T04:19:48;17.20;86.90
36424;DHT22;22458;45.328;9.514;2023-04-23T04:22:14;17.10;87.50
36424;DHT22;22458;45.328;9.514;2023-04-23T04:24:40;17.00;87.70
36424;DHT22;22458;45.328;9.514;2023-04-23T04:27:07;17.00;88.00
36424;DHT22;22458;45.328;9.514;2023-04-23T04:29:33;17.00;88.20
36424;DHT22;22458;45.328;9.514;2023-04-23T04:31:59;17.00;88.40
36424;DHT22;22458;45.328;9.514;2023-04-23T04:34:26;16.90;88.60
36424;DHT22;22458;45.328;9.514;2023-04-23T04:36:52;16.90;88.80
36424;DHT22;22458;45.328;9.514;2023-04-23T04:39:19;16.90;88.90
36424;DHT22;22458;45.328;9.514;2023-04-23T04:41:45;16.90;89.00
36424;DHT22;22458;45.328;9.514;2023-04-23T04:44:11;16.80;89.00
36424;DHT22;22458;45.328;9.514;2023-04-23T04:46:39;16.80;89.00
36424;DHT22;22458;45.328;9.514;2023-04-23T04:49:11;16.80;89.00
36424;DHT22;22458;45.328;9.514;2023-04-23T04:51:39;16.80;88.90
36424;DHT22;22458;45.328;9.514;2023-04-23T04:54:05;16.80;89.00
36424;DHT22;22458;45.328;9.514;2023-04-23T04:56:32;16.80;89.00
36424;DHT22;22458;45.328;9.514;2023-04-23T04:58:59;16.80;89.00
36424;DHT22;22458;45.328;9.514;2023-04-23T05:01:25;16.80;89.10
36424;DHT22;22458;45.328;9.514;2023-04-23T05:03:51;16.80;89.20
36424;DHT22;22458;45.328;9.514;2023-04-23T05:06:18;16.80;89.40
36424;DHT22;22458;45.328;9.514;2023-04-23T05:08:43;16.80;89.40
36424;DHT22;22458;45.328;9.514;2023-04-23T05:11:16;16.80;89.30
36424;DHT22;22458;45.328;9.514;2023-04-23T05:13:46;16.80;89.20
36424;DHT22;22458;45.328;9.514;2023-04-23T05:16:12;16.80;89.20
36424;DHT22;22458;45.328;9.514;2023-04-23T05:18:39;16.80;89.20
36424;DHT22;22458;45.328;9.514;2023-04-23T05:21:05;16.80;89.40
36424;DHT22;22458;45.328;9.514;2023-04-23T05:23:32;16.80;89.60
36424;DHT22;22458;45.328;9.514;2023-04-23T05:25:57;16.80;89.60
36424;DHT22;22458;45.328;9.514;2023-04-23T05:28:24;16.90;89.70
36424;DHT22;22458;45.328;9.514;2023-04-23T05:30:50;16.90;89.60
36424;DHT22;22458;45.328;9.514;2023-04-23T05:33:16;16.90;89.60
36424;DHT22;22458;45.328;9.514;2023-04-23T05:35:42;17.00;89.60
36424;DHT22;22458;45.328;9.514;2023-04-23T05:38:09;17.00;89.70
36424;DHT22;22458;45.328;9.514;2023-04-23T05:40:35;17.10;89.70
36424;DHT22;22458;45.328;9.514;2023-04-23T05:43:01;17.10;89.50
36424;DHT22;22458;45.328;9.514;2023-04-23T05:45:27;17.10;89.40
36424;DHT22;22458;45.328;9.514;2023-04-23T05:47:52;17.10;89.30
36424;DHT22;22458;45.328;9.514;2023-04-23T05:50:19;17.10;89.20
36424;DHT22;22458;45.328;9.514;2023-04-23T05:52:46;17.10;89.20
36424;DHT22;22458;45.328;9.514;2023-04-23T05:55:11;17.10;89.40
36424;DHT22;22458;45.328;9.514;2023-04-23T05:57:40;17.10;89.30
36424;DHT22;22458;45.328;9.514;2023-04-23T06:00:06;17.10;89.30
36424;DHT22;22458;45.328;9.514;2023-04-23T06:02:39;17.10;89.30
36424;DHT22;22458;45.328;9.514;2023-04-23T06:05:06;17.10;89.20
36424;DHT22;22458;45.328;9.514;2023-04-23T06:07:32;17.20;89.20
36424;DHT22;22458;45.328;9.514;2023-04-23T06:09:58;17.20;89.10
36424;DHT22;22458;45.328;9.514;2023-04-23T06:12:24;17.20;88.80
36424;DHT22;22458;45.328;9.514;2023-04-23T06:14:51;17.20;88.70
36424;DHT22;22458;45.328;9.514;2023-04-23T06:17:17;17.30;89.30
36424;DHT22;22458;45.328;9.514;2023-04-23T06:19:43;17.20;88.70
36424;DHT22;22458;45.328;9.514;2023-04-23T06:22:09;17.20;88.80
36424;DHT22;22458;45.328;9.514;2023-04-23T06:24:35;17.20;88.80
36424;DHT22;22458;45.328;9.514;2023-04-23T06:27:00;17.30;88.70
36424;DHT22;22458;45.328;9.514;2023-04-23T06:29:29;17.30;88.80
36424;DHT22;22458;45.328;9.514;2023-04-23T06:32:03;17.40;89.00
36424;DHT22;22458;45.328;9.514;2023-04-23T06:34:29;17.30;89.30
36424;DHT22;22458;45.328;9.514;2023-04-23T06:36:55;17.40;89.20
36424;DHT22;22458;45.328;9.514;2023-04-23T06:39:21;17.40;88.80
36424;DHT22;22458;45.328;9.514;2023-04-23T06:41:47;17.50;88.60
36424;DHT22;22458;45.328;9.514;2023-04-23T06:44:21;17.50;88.50
36424;DHT22;22458;45.328;9.514;2023-04-23T06:46:50;17.50;88.50
36424;DHT22;22458;45.328;9.514;2023-04-23T06:49:17;17.50;88.40
36424;DHT22;22458;45.328;9.514;2023-04-23T06:51:42;17.60;88.50
36424;DHT22;22458;45.328;9.514;2023-04-23T06:54:08;17.60;88.50
36424;DHT22;22458;45.328;9.514;2023-04-23T06:56:34;17.60;88.60
36424;DHT22;22458;45.328;9.514;2023-04-23T06:59:00;17.70;88.30
36424;DHT22;22458;45.328;9.514;2023-04-23T07:01:26;17.70;87.90
36424;DHT22;22458;45.328;9.514;2023-04-23T07:03:52;17.80;87.50
36424;DHT22;22458;45.328;9.514;2023-04-23T07:06:19;17.80;87.30
36424;DHT22;22458;45.328;9.514;2023-04-23T07:08:44;17.90;87.20
36424;DHT22;22458;45.328;9.514;2023-04-23T07:11:11;17.90;85.80
36424;DHT22;22458;45.328;9.514;2023-04-23T07:13:38;18.00;85.60
36424;DHT22;22458;45.328;9.514;2023-04-23T07:16:04;18.10;84.80
36424;DHT22;22458;45.328;9.514;2023-04-23T07:18:29;18.20;83.30
36424;DHT22;22458;45.328;9.514;2023-04-23T07:20:55;18.30;81.80
36424;DHT22;22458;45.328;9.514;2023-04-23T07:23:21;18.40;80.90
36424;DHT22;22458;45.328;9.514;2023-04-23T07:25:47;18.60;80.00
36424;DHT22;22458;45.328;9.514;2023-04-23T07:28:12;18.70;79.00
36424;DHT22;22458;45.328;9.514;2023-04-23T07:30:38;18.70;78.30
36424;DHT22;22458;45.328;9.514;2023-04-23T07:33:04;18.80;77.70
36424;DHT22;22458;45.328;9.514;2023-04-23T07:35:31;18.90;76.90
36424;DHT22;22458;45.328;9.514;2023-04-23T07:37:57;19.00;76.20
36424;DHT22;22458;45.328;9.514;2023-04-23T07:40:23;19.10;75.70
36424;DHT22;22458;45.328;9.514;2023-04-23T07:42:49;19.10;75.50
36424;DHT22;22458;45.328;9.514;2023-04-23T07:45:16;19.20;75.40
36424;DHT22;22458;45.328;9.514;2023-04-23T07:47:42;19.30;74.90
36424;DHT22;22458;45.328;9.514;2023-04-23T07:50:08;19.40;74.60
36424;DHT22;22458;45.328;9.514;2023-04-23T07:52:34;19.50;74.50
36424;DHT22;22458;45.328;9.514;2023-04-23T07:55:01;19.50;74.30
36424;DHT22;22458;45.328;9.514;2023-04-23T07:57:27;19.60;74.10
36424;DHT22;22458;45.328;9.514;2023-04-23T07:59:52;19.70;73.70
36424;DHT22;22458;45.328;9.514;2023-04-23T08:02:18;19.70;73.20
36424;DHT22;22458;45.328;9.514;2023-04-23T08:04:48;19.80;72.70
36424;DHT22;22458;45.328;9.514;2023-04-23T08:07:16;19.90;72.60
36424;DHT22;22458;45.328;9.514;2023-04-23T08:09:42;20.00;72.40
36424;DHT22;22458;45.328;9.514;2023-04-23T08:12:08;20.10;72.00
36424;DHT22;22458;45.328;9.514;2023-04-23T08:14:34;20.10;71.50
36424;DHT22;22458;45.328;9.514;2023-04-23T08:17:04;20.30;71.20
36424;DHT22;22458;45.328;9.514;2023-04-23T08:19:29;20.30;70.50
36424;DHT22;22458;45.328;9.514;2023-04-23T08:21:58;20.30;70.20
36424;DHT22;22458;45.328;9.514;2023-04-23T08:24:24;20.30;70.00
36424;DHT22;22458;45.328;9.514;2023-04-23T08:26:51;20.50;69.40
36424;DHT22;22458;45.328;9.514;2023-04-23T08:29:17;20.60;69.30
36424;DHT22;22458;45.328;9.514;2023-04-23T08:31:43;20.80;69.10
36424;DHT22;22458;45.328;9.514;2023-04-23T08:34:08;20.90;68.20
36424;DHT22;22458;45.328;9.514;2023-04-23T08:36:34;20.80;67.60
36424;DHT22;22458;45.328;9.514;2023-04-23T08:39:00;20.90;67.60
36424;DHT22;22458;45.328;9.514;2023-04-23T08:41:32;21.00;67.40
36424;DHT22;22458;45.328;9.514;2023-04-23T08:44:18;21.00;66.90
36424;DHT22;22458;45.328;9.514;2023-04-23T08:46:44;21.10;66.40
36424;DHT22;22458;45.328;9.514;2023-04-23T08:49:15;21.10;66.70
36424;DHT22;22458;45.328;9.514;2023-04-23T08:51:48;21.20;66.20
36424;DHT22;22458;45.328;9.514;2023-04-23T08:54:20;21.30;66.10
36424;DHT22;22458;45.328;9.514;2023-04-23T08:56:46;21.40;66.10
36424;DHT22;22458;45.328;9.514;2023-04-23T08:59:14;21.60;65.70
36424;DHT22;22458;45.328;9.514;2023-04-23T09:01:42;21.80;65.20
36424;DHT22;22458;45.328;9.514;2023-04-23T09:04:08;21.90;65.20
36424;DHT22;22458;45.328;9.514;2023-04-23T09:06:35;22.00;65.10
36424;DHT22;22458;45.328;9.514;2023-04-23T09:09:02;22.10;64.60
36424;DHT22;22458;45.328;9.514;2023-04-23T09:11:29;22.20;64.20
36424;DHT22;22458;45.328;9.514;2023-04-23T09:13:56;22.10;63.80
36424;DHT22;22458;45.328;9.514;2023-04-23T09:16:21;22.10;64.10
36424;DHT22;22458;45.328;9.514;2023-04-23T09:18:47;22.20;63.90
36424;DHT22;22458;45.328;9.514;2023-04-23T09:21:15;22.30;63.40
36424;DHT22;22458;45.328;9.514;2023-04-23T09:23:42;22.40;63.30
36424;DHT22;22458;45.328;9.514;2023-04-23T09:26:08;22.40;63.00
36424;DHT22;22458;45.328;9.514;2023-04-23T09:28:34;22.40;62.80
36424;DHT22;22458;45.328;9.514;2023-04-23T09:31:01;22.50;62.90
36424;DHT22;22458;45.328;9.514;2023-04-23T09:33:27;22.60;62.70
36424;DHT22;22458;45.328;9.514;2023-04-23T09:35:53;22.70;62.50
36424;DHT22;22458;45.328;9.514;2023-04-23T09:38:19;22.90;61.80
36424;DHT22;22458;45.328;9.514;2023-04-23T09:40:45;22.90;61.10
36424;DHT22;22458;45.328;9.514;2023-04-23T09:43:10;23.10;60.50
36424;DHT22;22458;45.328;9.514;2023-04-23T09:45:36;23.10;60.20
36424;DHT22;22458;45.328;9.514;2023-04-23T09:48:11;23.20;59.90
36424;DHT22;22458;45.328;9.514;2023-04-23T09:50:38;23.20;60.00
36424;DHT22;22458;45.328;9.514;2023-04-23T09:53:06;23.20;60.50
36424;DHT22;22458;45.328;9.514;2023-04-23T09:55:33;23.20;60.60
36424;DHT22;22458;45.328;9.514;2023-04-23T09:58:03;23.20;60.60
36424;DHT22;22458;45.328;9.514;2023-04-23T10:00:34;23.30;60.60
36424;DHT22;22458;45.328;9.514;2023-04-23T10:03:00;23.40;60.40
36424;DHT22;22458;45.328;9.514;2023-04-23T10:05:26;23.50;60.40
36424;DHT22;22458;45.328;9.514;2023-04-23T10:07:53;23.50;59.80
36424;DHT22;22458;45.328;9.514;2023-04-23T10:10:19;23.60;59.80
36424;DHT22;22458;45.328;9.514;2023-04-23T10:12:45;23.70;59.60
36424;DHT22;22458;45.328;9.514;2023-04-23T10:15:12;23.70;59.30
36424;DHT22;22458;45.328;9.514;2023-04-23T10:17:39;23.70;59.10
36424;DHT22;22458;45.328;9.514;2023-04-23T10:20:07;23.60;58.90
36424;DHT22;22458;45.328;9.514;2023-04-23T10:22:34;23.70;59.30
36424;DHT22;22458;45.328;9.514;2023-04-23T10:25:08;23.70;59.30
36424;DHT22;22458;45.328;9.514;2023-04-23T10:27:37;23.80;58.90
36424;DHT22;22458;45.328;9.514;2023-04-23T10:30:05;23.90;58.80
36424;DHT22;22458;45.328;9.514;2023-04-23T10:32:36;24.00;58.70
36424;DHT22;22458;45.328;9.514;2023-04-23T10:35:03;24.10;58.90
36424;DHT22;22458;45.328;9.514;2023-04-23T10:37:30;24.30;59.10
36424;DHT22;22458;45.328;9.514;2023-04-23T10:40:08;24.30;58.20
36424;DHT22;22458;45.328;9.514;2023-04-23T10:42:40;24.30;58.00
36424;DHT22;22458;45.328;9.514;2023-04-23T10:45:16;24.30;58.00
36424;DHT22;22458;45.328;9.514;2023-04-23T10:47:43;24.20;57.40
36424;DHT22;22458;45.328;9.514;2023-04-23T10:52:45;24.10;57.50
36424;DHT22;22458;45.328;9.514;2023-04-23T10:55:19;24.10;57.60
36424;DHT22;22458;45.328;9.514;2023-04-23T11:00:24;24.30;57.30
36424;DHT22;22458;45.328;9.514;2023-04-23T11:02:51;24.40;57.00
36424;DHT22;22458;45.328;9.514;2023-04-23T11:05:21;24.60;56.80
36424;DHT22;22458;45.328;9.514;2023-04-23T11:08:06;24.60;56.60
36424;DHT22;22458;45.328;9.514;2023-04-23T11:10:32;24.50;56.50
36424;DHT22;22458;45.328;9.514;2023-04-23T11:13:18;24.50;56.80
36424;DHT22;22458;45.328;9.514;2023-04-23T11:15:45;24.50;56.60
36424;DHT22;22458;45.328;9.514;2023-04-23T11:18:11;24.50;56.80
36424;DHT22;22458;45.328;9.514;2023-04-23T11:20:37;24.50;56.70
36424;DHT22;22458;45.328;9.514;2023-04-23T11:23:05;24.60;57.00
36424;DHT22;22458;45.328;9.514;2023-04-23T11:25:31;24.80;57.00
36424;DHT22;22458;45.328;9.514;2023-04-23T11:27:57;24.80;57.70
36424;DHT22;22458;45.328;9.514;2023-04-23T11:30:25;24.70;56.90
36424;DHT22;22458;45.328;9.514;2023-04-23T11:32:53;24.70;56.40
36424;DHT22;22458;45.328;9.514;2023-04-23T11:35:21;24.80;56.30
36424;DHT22;22458;45.328;9.514;2023-04-23T11:37:47;25.00;56.50
36424;DHT22;22458;45.328;9.514;2023-04-23T11:40:16;25.30;56.20
36424;DHT22;22458;45.328;9.514;2023-04-23T11:42:50;25.50;55.60
36424;DHT22;22458;45.328;9.514;2023-04-23T11:45:17;25.90;54.80
36424;DHT22;22458;45.328;9.514;2023-04-23T11:47:44;26.20;54.20
36424;DHT22;22458;45.328;9.514;2023-04-23T11:50:23;26.40;53.70
36424;DHT22;22458;45.328;9.514;2023-04-23T11:52:55;26.40;53.90
36424;DHT22;22458;45.328;9.514;2023-04-23T11:55:22;26.40;54.80
36424;DHT22;22458;45.328;9.514;2023-04-23T11:57:49;26.30;54.30
36424;DHT22;22458;45.328;9.514;2023-04-23T12:00:22;26.20;54.30
36424;DHT22;22458;45.328;9.514;2023-04-23T12:03:04;26.10;54.40
36424;DHT22;22458;45.328;9.514;2023-04-23T12:05:37;26.20;55.00
36424;DHT22;22458;45.328;9.514;2023-04-23T12:08:18;26.30;54.80
36424;DHT22;22458;45.328;9.514;2023-04-23T12:10:46;26.40;54.60
36424;DHT22;22458;45.328;9.514;2023-04-23T12:13:23;26.50;54.90
36424;DHT22;22458;45.328;9.514;2023-04-23T12:15:51;26.60;55.40
36424;DHT22;22458;45.328;9.514;2023-04-23T12:18:17;26.50;55.00
36424;DHT22;22458;45.328;9.514;2023-04-23T12:20:44;26.50;55.00
36424;DHT22;22458;45.328;9.514;2023-04-23T12:23:10;26.40;55.10
36424;DHT22;22458;45.328;9.514;2023-04-23T12:25:36;26.30;55.10
36424;DHT22;22458;45.328;9.514;2023-04-23T12:28:06;26.20;54.90
36424;DHT22;22458;45.328;9.514;2023-04-23T12:30:33;26.30;54.90
36424;DHT22;22458;45.328;9.514;2023-04-23T12:33:02;26.30;54.70
36424;DHT22;22458;45.328;9.514;2023-04-23T12:35:44;26.30;54.80
36424;DHT22;22458;45.328;9.514;2023-04-23T12:38:24;26.50;54.50
36424;DHT22;22458;45.328;9.514;2023-04-23T12:40:55;26.60;54.80
36424;DHT22;22458;45.328;9.514;2023-04-23T12:43:21;26.90;55.00
36424;DHT22;22458;45.328;9.514;2023-04-23T12:45:48;27.00;54.30
36424;DHT22;22458;45.328;9.514;2023-04-23T12:48:14;26.90;54.00
36424;DHT22;22458;45.328;9.514;2023-04-23T12:50:40;27.00;54.00
36424;DHT22;22458;45.328;9.514;2023-04-23T12:53:06;27.00;53.90
36424;DHT22;22458;45.328;9.514;2023-04-23T12:55:32;27.00;54.00
36424;DHT22;22458;45.328;9.514;2023-04-23T12:57:58;26.90;53.60
36424;DHT22;22458;45.328;9.514;2023-04-23T13:00:25;26.90;53.60
36424;DHT22;22458;45.328;9.514;2023-04-23T13:02:51;26.90;53.50
36424;DHT22;22458;45.328;9.514;2023-04-23T13:05:17;27.00;53.40
36424;DHT22;22458;45.328;9.514;2023-04-23T13:07:43;27.10;53.90
36424;DHT22;22458;45.328;9.514;2023-04-23T13:10:09;27.20;52.80
36424;DHT22;22458;45.328;9.514;2023-04-23T13:12:35;27.30;52.60
36424;DHT22;22458;45.328;9.514;2023-04-23T13:15:01;27.40;52.30
36424;DHT22;22458;45.328;9.514;2023-04-23T13:17:27;27.50;51.80
36424;DHT22;22458;45.328;9.514;2023-04-23T13:19:53;27.50;51.30
36424;DHT22;22458;45.328;9.514;2023-04-23T13:22:20;27.50;51.20
36424;DHT22;22458;45.328;9.514;2023-04-23T13:24:46;27.50;51.30
36424;DHT22;22458;45.328;9.514;2023-04-23T13:27:12;27.50;51.30
36424;DHT22;22458;45.328;9.514;2023-04-23T13:29:38;27.60;51.20
36424;DHT22;22458;45.328;9.514;2023-04-23T13:32:04;27.60;51.00
36424;DHT22;22458;45.328;9.514;2023-04-23T13:34:30;27.70;51.20
36424;DHT22;22458;45.328;9.514;2023-04-23T13:36:56;27.70;51.20
36424;DHT22;22458;45.328;9.514;2023-04-23T13:39:24;27.80;51.10
36424;DHT22;22458;45.328;9.514;2023-04-23T13:41:49;27.90;50.90
36424;DHT22;22458;45.328;9.514;2023-04-23T13:44:15;28.10;50.80
36424;DHT22;22458;45.328;9.514;2023-04-23T13:46:41;28.10;50.50
36424;DHT22;22458;45.328;9.514;2023-04-23T13:49:07;28.10;50.30
36424;DHT22;22458;45.328;9.514;2023-04-23T13:51:33;28.00;50.10
36424;DHT22;22458;45.328;9.514;2023-04-23T13:53:59;28.00;49.70
36424;DHT22;22458;45.328;9.514;2023-04-23T13:56:28;28.10;49.40
36424;DHT22;22458;45.328;9.514;2023-04-23T13:58:56;28.00;49.30
36424;DHT22;22458;45.328;9.514;2023-04-23T14:01:27;28.00;49.40
36424;DHT22;22458;45.328;9.514;2023-04-23T14:03:53;28.00;49.30
36424;DHT22;22458;45.328;9.514;2023-04-23T14:06:18;28.00;49.50
36424;DHT22;22458;45.328;9.514;2023-04-23T14:08:44;27.90;49.60
36424;DHT22;22458;45.328;9.514;2023-04-23T14:11:10;27.90;49.80
36424;DHT22;22458;45.328;9.514;2023-04-23T14:13:36;28.00;49.90
36424;DHT22;22458;45.328;9.514;2023-04-23T14:16:02;28.20;49.80
36424;DHT22;22458;45.328;9.514;2023-04-23T14:18:28;28.50;49.60
36424;DHT22;22458;45.328;9.514;2023-04-23T14:20:53;28.70;49.20
36424;DHT22;22458;45.328;9.514;2023-04-23T14:25:56;29.10;48.50
36424;DHT22;22458;45.328;9.514;2023-04-23T14:28:44;29.30;48.60
36424;DHT22;22458;45.328;9.514;2023-04-23T14:31:11;29.20;48.50
36424;DHT22;22458;45.328;9.514;2023-04-23T14:33:36;29.00;49.00
36424;DHT22;22458;45.328;9.514;2023-04-23T14:36:02;28.80;48.90
36424;DHT22;22458;45.328;9.514;2023-04-23T14:38:28;28.60;48.90
36424;DHT22;22458;45.328;9.514;2023-04-23T14:40:54;28.40;49.00
36424;DHT22;22458;45.328;9.514;2023-04-23T14:43:20;28.20;49.20
36424;DHT22;22458;45.328;9.514;2023-04-23T14:45:46;28.10;49.40
36424;DHT22;22458;45.328;9.514;2023-04-23T14:48:11;28.00;49.60
36424;DHT22;22458;45.328;9.514;2023-04-23T14:50:37;28.00;49.70
36424;DHT22;22458;45.328;9.514;2023-04-23T14:53:03;28.00;49.80
36424;DHT22;22458;45.328;9.514;2023-04-23T14:55:31;28.10;50.00
36424;DHT22;22458;45.328;9.514;2023-04-23T14:57:57;28.00;49.70
36424;DHT22;22458;45.328;9.514;2023-04-23T15:00:23;28.00;49.60
36424;DHT22;22458;45.328;9.514;2023-04-23T15:02:49;27.90;49.30
36424;DHT22;22458;45.328;9.514;2023-04-23T15:05:15;27.80;49.40
36424;DHT22;22458;45.328;9.514;2023-04-23T15:07:41;27.70;49.50
36424;DHT22;22458;45.328;9.514;2023-04-23T15:10:08;27.80;49.60
36424;DHT22;22458;45.328;9.514;2023-04-23T15:12:36;27.90;49.10
36424;DHT22;22458;45.328;9.514;2023-04-23T15:18:02;28.30;48.80
36424;DHT22;22458;45.328;9.514;2023-04-23T15:20:27;28.50;48.80
36424;DHT22;22458;45.328;9.514;2023-04-23T15:22:53;28.70;49.40
36424;DHT22;22458;45.328;9.514;2023-04-23T15:25:19;28.90;48.90
36424;DHT22;22458;45.328;9.514;2023-04-23T15:27:45;28.90;48.60
36424;DHT22;22458;45.328;9.514;2023-04-23T15:30:11;28.80;48.70
36424;DHT22;22458;45.328;9.514;2023-04-23T15:32:37;28.80;49.00
36424;DHT22;22458;45.328;9.514;2023-04-23T15:35:02;28.60;48.70
36424;DHT22;22458;45.328;9.514;2023-04-23T15:37:28;28.60;48.80
36424;DHT22;22458;45.328;9.514;2023-04-23T15:39:56;28.50;48.90